Time;durP1;ratioP1;P1;durP2;ratioP2;P2;SDS_P1;SDS_P2;PMS_P1;PMS_P2;Temp;Humidity;BMP_temperature;BMP_pressure;BME280_temperature;BME280_humidity;BME280_pressure;Samples;Min_cycle;Max_cycle;Signal;HPM_P1;HPM_P2
2022/08/04 00:08:43;;;;;;;8.45;6.38;;;16.30;99.90;;;;;;21060820;28;20035;-62
2022/08/04 00:18:53;;;;;;;7.60;5.70;;;16.40;99.90;;;;;;21059530;28;20489;-63
2022/08/04 00:28:56;;;;;;;8.23;7.10;;;16.10;99.90;;;;;;21058091;28;20036;-61
2022/08/04 00:38:59;;;;;;;10.07;6.93;;;16.00;99.90;;;;;;20932578;28;20045;-59
2022/08/04 00:49:25;;;;;;;7.38;6.60;;;16.10;99.90;;;;;;20892359;28;20552;-58
2022/08/04 00:59:56;;;;;;;5.32;4.80;;;16.20;99.90;;;;;;20927828;28;20090;-58
2022/08/04 01:10:09;;;;;;;7.18;5.10;;;16.30;99.90;;;;;;20903254;28;20045;-58
2022/08/04 01:20:19;;;;;;;6.47;4.70;;;16.20;99.90;;;;;;20888535;28;20033;-63
2022/08/04 01:30:25;;;;;;;6.57;5.85;;;16.30;99.90;;;;;;20871112;28;20494;-58
2022/08/04 01:40:28;;;;;;;6.90;6.20;;;16.30;99.90;;;;;;21030063;28;20096;-58
2022/08/04 01:50:34;;;;;;;5.78;5.07;;;16.40;99.90;;;;;;21052676;28;20412;-53
2022/08/04 02:00:42;;;;;;;7.70;5.80;;;16.50;99.90;;;;;;21007632;28;20391;-52
2022/08/04 02:10:44;;;;;;;7.50;4.65;;;16.30;99.90;;;;;;21087147;28;20381;-53
2022/08/04 02:20:59;;;;;;;8.57;5.25;;;16.20;99.90;;;;;;21133966;28;20028;-52
2022/08/04 02:31:31;;;;;;;5.75;4.97;;;16.20;99.90;;;;;;21133207;28;20036;-54
2022/08/04 02:41:35;;;;;;;8.18;4.60;;;16.50;99.90;;;;;;21145319;28;20040;-53
2022/08/04 02:51:44;;;;;;;5.28;4.53;;;16.80;99.90;;;;;;21160814;28;20070;-56
2022/08/04 03:01:46;;;;;;;4.30;3.90;;;16.90;99.90;;;;;;21105967;28;20040;-53
2022/08/04 03:12:26;;;;;;;4.32;3.70;;;17.20;99.90;;;;;;21076341;28;20036;-53
2022/08/04 03:22:38;;;;;;;5.38;4.00;;;17.10;99.90;;;;;;21076094;28;20097;-53
2022/08/04 03:32:59;;;;;;;6.00;4.68;;;17.00;99.90;;;;;;21075554;28;20446;-52
2022/08/04 03:43:20;;;;;;;3.90;3.50;;;16.80;99.90;;;;;;21075272;28;20032;-53
2022/08/04 03:53:43;;;;;;;4.68;4.28;;;16.60;99.90;;;;;;21067958;28;20036;-57
2022/08/04 04:04:15;;;;;;;7.20;4.40;;;16.30;99.90;;;;;;20990856;28;20025;-58
2022/08/04 04:14:59;;;;;;;6.07;4.05;;;16.30;99.90;;;;;;21054287;28;20044;-57
2022/08/04 04:25:35;;;;;;;5.97;5.00;;;16.30;99.90;;;;;;21043182;28;20101;-54
2022/08/04 04:35:47;;;;;;;6.60;4.53;;;16.10;99.90;;;;;;21058449;28;20172;-58
2022/08/04 04:46:12;;;;;;;6.47;4.47;;;16.10;99.90;;;;;;21057881;28;20480;-57
2022/08/04 04:56:20;;;;;;;9.48;4.45;;;16.00;99.90;;;;;;21042225;28;20096;-53
2022/08/04 05:06:58;;;;;;;5.10;4.60;;;16.10;99.90;;;;;;21138298;28;20036;-58
2022/08/04 05:17:03;;;;;;;5.22;4.72;;;16.10;99.90;;;;;;21094966;28;20048;-58
2022/08/04 05:27:30;;;;;;;6.45;4.53;;;16.30;99.90;;;;;;21138371;28;20480;-53
2022/08/04 05:37:34;;;;;;;6.72;4.18;;;16.40;99.90;;;;;;21104331;28;20048;-53
2022/08/04 05:47:38;;;;;;;4.80;4.30;;;16.50;99.90;;;;;;20999751;28;20032;-58
2022/08/04 05:57:41;;;;;;;7.25;3.85;;;16.70;99.90;;;;;;21054261;28;20496;-54
2022/08/04 06:07:44;;;;;;;4.80;3.22;;;17.00;99.90;;;;;;21134883;28;20035;-52
2022/08/04 06:17:57;;;;;;;6.05;3.55;;;17.20;99.90;;;;;;21134019;28;20035;-59
2022/08/04 06:28:04;;;;;;;5.03;3.40;;;18.10;99.90;;;;;;21133723;28;20477;-59
2022/08/04 06:38:07;;;;;;;5.05;2.88;;;22.20;99.90;;;;;;21133197;28;20697;-56
2022/08/04 06:48:13;;;;;;;3.08;2.72;;;22.00;99.90;;;;;;21132722;28;20447;-57
2022/08/04 06:58:18;;;;;;;3.65;2.05;;;25.00;96.40;;;;;;21108902;28;20040;-61
2022/08/04 07:08:21;;;;;;;2.60;2.40;;;26.60;94.70;;;;;;21047956;28;20044;-60
2022/08/04 07:18:23;;;;;;;3.45;2.50;;;28.60;91.10;;;;;;21048830;28;20024;-57
2022/08/04 07:28:28;;;;;;;3.33;2.90;;;29.40;87.60;;;;;;21054443;28;20398;-57
2022/08/04 07:38:30;;;;;;;2.63;2.42;;;29.30;86.20;;;;;;21071351;28;20051;-57
2022/08/04 07:48:34;;;;;;;2.90;2.70;;;29.00;85.50;;;;;;20985773;28;20106;-60
2022/08/04 07:58:36;;;;;;;4.88;2.70;;;28.90;83.00;;;;;;21058137;28;20085;-57
2022/08/04 08:08:39;;;;;;;2.67;2.47;;;28.70;82.40;;;;;;21060618;28;20058;-57
2022/08/04 08:18:42;;;;;;;2.25;2.05;;;28.80;83.20;;;;;;21060325;28;20039;-57
2022/08/04 08:28:45;;;;;;;4.32;2.42;;;29.10;85.70;;;;;;21059424;28;20040;-57
2022/08/04 08:39:04;;;;;;;4.05;2.80;;;29.30;85.90;;;;;;20969131;28;20359;-57
2022/08/04 08:49:10;;;;;;;2.67;2.25;;;29.40;84.80;;;;;;20876236;28;20104;-57
2022/08/04 08:59:50;;;;;;;3.15;2.85;;;29.30;84.90;;;;;;20896397;28;20029;-57
2022/08/04 09:10:01;;;;;;;3.92;2.70;;;29.10;85.50;;;;;;20890703;28;20041;-57
2022/08/04 09:20:28;;;;;;;4.53;4.13;;;29.10;84.70;;;;;;20901512;28;20025;-58
2022/08/04 09:30:53;;;;;;;4.32;2.92;;;29.40;83.00;;;;;;20969890;28;20029;-57
2022/08/04 09:41:29;;;;;;;3.08;2.78;;;29.70;82.70;;;;;;20897210;28;20098;-56
2022/08/04 09:52:05;;;;;;;4.55;3.35;;;29.60;83.70;;;;;;20886686;28;20094;-57
2022/08/04 10:02:12;;;;;;;2.65;2.38;;;29.80;80.00;;;;;;20917302;28;20726;-56
2022/08/04 10:12:40;;;;;;;2.47;2.28;;;29.60;81.80;;;;;;20886294;28;20517;-56
2022/08/04 10:23:05;;;;;;;3.03;2.28;;;29.80;82.00;;;;;;20880929;28;20045;-57
2022/08/04 10:33:36;;;;;;;2.77;2.57;;;30.00;83.00;;;;;;20934239;28;20094;-58
2022/08/04 10:44:17;;;;;;;3.13;2.70;;;30.20;82.70;;;;;;21049894;28;20489;-57
2022/08/04 10:54:28;;;;;;;3.47;2.80;;;30.30;81.50;;;;;;21049720;28;20040;-56
2022/08/04 11:04:39;;;;;;;4.53;3.50;;;30.50;82.40;;;;;;21058259;28;20039;-56
2022/08/04 11:14:57;;;;;;;3.97;3.40;;;30.80;80.50;;;;;;21104570;28;20036;-56
2022/08/04 11:25:19;;;;;;;3.38;3.03;;;30.80;82.50;;;;;;21099699;28;20401;-56
2022/08/04 11:35:29;;;;;;;5.25;2.80;;;30.90;82.20;;;;;;21023219;28;20044;-56
2022/08/04 11:45:49;;;;;;;3.28;2.33;;;30.70;81.00;;;;;;21063087;28;20036;-56
2022/08/04 11:55:57;;;;;;;3.00;2.25;;;30.80;81.60;;;;;;21081808;28;20077;-56
2022/08/04 12:06:35;;;;;;;2.80;2.25;;;30.90;79.80;;;;;;21018568;28;20086;-56
2022/08/04 12:17:02;;;;;;;2.72;2.33;;;31.00;76.70;;;;;;21000211;28;20170;-56
2022/08/04 12:27:11;;;;;;;2.22;1.92;;;31.00;74.10;;;;;;21050440;28;20097;-55
2022/08/04 12:37:43;;;;;;;2.95;1.85;;;30.80;77.80;;;;;;21058624;28;20101;-56
2022/08/04 12:47:47;;;;;;;2.80;2.30;;;31.00;77.20;;;;;;21058057;28;20060;-55
2022/08/04 12:57:52;;;;;;;2.78;2.10;;;31.20;74.20;;;;;;21036475;28;20100;-55
2022/08/04 13:07:56;;;;;;;4.73;2.87;;;31.00;74.30;;;;;;21029007;28;20053;-54
2022/08/04 13:18:02;;;;;;;3.50;2.72;;;31.20;74.40;;;;;;21030726;28;20037;-54
2022/08/04 13:28:12;;;;;;;3.88;2.95;;;31.40;77.20;;;;;;21026409;28;20105;-54
2022/08/04 13:38:17;;;;;;;4.88;3.25;;;31.30;77.00;;;;;;21032129;28;20052;-55
2022/08/04 13:48:20;;;;;;;6.70;3.50;;;31.30;76.30;;;;;;21026868;28;20176;-55
2022/08/04 13:58:24;;;;;;;5.05;3.50;;;31.20;78.00;;;;;;21027010;28;20090;-55
2022/08/04 14:08:28;;;;;;;5.03;4.00;;;31.30;78.10;;;;;;21076799;28;20471;-55
2022/08/04 14:18:32;;;;;;;5.13;4.10;;;31.50;75.50;;;;;;21134282;28;20487;-55
2022/08/04 14:28:35;;;;;;;3.72;3.42;;;31.50;78.50;;;;;;21080666;28;20385;-55
2022/08/04 14:38:42;;;;;;;6.28;4.47;;;31.60;76.80;;;;;;21050565;28;20040;-55
2022/08/04 14:49:00;;;;;;;5.45;4.68;;;31.70;76.10;;;;;;21049703;28;20358;-56
2022/08/04 14:59:07;;;;;;;4.30;3.90;;;31.50;75.70;;;;;;21077704;28;20061;-56
2022/08/04 15:09:10;;;;;;;4.70;4.30;;;31.90;76.00;;;;;;21078149;28;20039;-56
2022/08/04 15:19:14;;;;;;;7.38;4.30;;;32.20;75.90;;;;;;21102986;28;20420;-56
2022/08/04 15:29:22;;;;;;;4.33;3.60;;;32.30;73.10;;;;;;21132636;28;20028;-56
2022/08/04 15:39:30;;;;;;;5.43;4.38;;;32.80;74.10;;;;;;21130632;28;20048;-56
2022/08/04 15:49:33;;;;;;;4.93;4.45;;;33.30;71.50;;;;;;21137256;28;20032;-55
2022/08/04 15:59:58;;;;;;;5.73;5.03;;;33.00;71.50;;;;;;21092862;28;20172;-53
2022/08/04 16:10:38;;;;;;;5.75;3.90;;;32.50;70.70;;;;;;21019872;28;20094;-54
2022/08/04 16:20:45;;;;;;;5.07;3.50;;;32.00;72.50;;;;;;20759511;28;20050;-55
2022/08/04 16:30:48;;;;;;;4.88;4.45;;;30.80;74.30;;;;;;20762444;28;20049;-54
2022/08/04 16:40:58;;;;;;;4.35;3.30;;;27.00;80.30;;;;;;20817429;28;20625;-54
2022/08/04 16:51:05;;;;;;;4.43;3.30;;;26.00;83.80;;;;;;20890935;28;20107;-56
2022/08/04 17:01:15;;;;;;;4.95;3.83;;;24.50;89.00;;;;;;21001491;28;20033;-55
2022/08/04 17:11:18;;;;;;;7.80;4.68;;;23.40;91.60;;;;;;21093859;28;20089;-55
2022/08/04 17:21:25;;;;;;;4.40;3.92;;;22.60;93.00;;;;;;21138427;28;20032;-54
2022/08/04 17:31:31;;;;;;;4.90;3.90;;;22.10;94.10;;;;;;21137607;28;20040;-54
2022/08/04 17:41:34;;;;;;;7.07;3.92;;;21.70;94.40;;;;;;21054645;28;20044;-54
2022/08/04 17:51:45;;;;;;;4.68;4.22;;;21.40;95.40;;;;;;21028718;28;20311;-54
2022/08/04 18:01:57;;;;;;;5.30;4.28;;;21.00;96.50;;;;;;21057299;28;20481;-53
2022/08/04 18:12:06;;;;;;;6.55;4.03;;;20.60;97.00;;;;;;21051177;28;20028;-54
2022/08/04 18:22:09;;;;;;;4.20;3.80;;;20.40;97.70;;;;;;21050970;28;20314;-54
2022/08/04 18:32:11;;;;;;;4.80;4.30;;;19.80;98.80;;;;;;21050192;28;20101;-52
2022/08/04 18:42:14;;;;;;;5.35;4.72;;;19.60;99.50;;;;;;21003860;28;20037;-53
2022/08/04 18:52:17;;;;;;;5.22;4.43;;;19.30;99.90;;;;;;21024765;28;20518;-58
2022/08/04 19:02:19;;;;;;;5.72;4.22;;;19.10;99.90;;;;;;21099802;28;20388;-61
2022/08/04 19:12:23;;;;;;;5.65;4.30;;;18.90;99.90;;;;;;21038857;28;20032;-63
2022/08/04 19:22:25;;;;;;;7.05;4.90;;;18.60;99.90;;;;;;21026457;28;20093;-62
2022/08/04 19:32:30;;;;;;;6.60;4.55;;;18.40;99.90;;;;;;21047619;28;20360;-61
2022/08/04 19:42:34;;;;;;;6.13;5.07;;;18.30;99.90;;;;;;21063583;28;20055;-61
2022/08/04 19:52:37;;;;;;;6.40;5.20;;;18.20;99.90;;;;;;21062452;28;20081;-62
2022/08/04 20:02:40;;;;;;;5.10;4.60;;;18.10;99.90;;;;;;21110037;28;20061;-63
2022/08/04 20:12:43;;;;;;;7.78;4.43;;;18.00;99.90;;;;;;21144312;28;20085;-64
2022/08/04 20:22:46;;;;;;;6.30;3.75;;;18.20;99.90;;;;;;21143335;28;20538;-62
2022/08/04 20:32:49;;;;;;;5.85;3.88;;;18.40;99.90;;;;;;21142118;28;20565;-62
2022/08/04 20:42:52;;;;;;;5.70;3.67;;;18.60;99.90;;;;;;21142119;28;20100;-62
2022/08/04 20:52:54;;;;;;;3.00;2.70;;;18.50;99.90;;;;;;21141723;28;20088;-64
2022/08/04 21:02:58;;;;;;;3.88;2.60;;;18.60;99.90;;;;;;21076928;28;20032;-64
2022/08/04 21:13:00;;;;;;;3.25;2.05;;;18.30;99.90;;;;;;21056268;28;20443;-52
2022/08/04 21:23:04;;;;;;;2.42;2.08;;;18.10;99.90;;;;;;21055314;28;20036;-58
2022/08/04 21:33:06;;;;;;;5.90;2.30;;;18.20;99.90;;;;;;21054455;28;20097;-58
2022/08/04 21:43:08;;;;;;;2.22;2.00;;;17.90;99.90;;;;;;21052046;28;20044;-51
2022/08/04 21:53:11;;;;;;;2.70;2.30;;;17.60;99.90;;;;;;21053080;28;20036;-49
2022/08/04 22:03:16;;;;;;;3.10;2.55;;;17.40;99.90;;;;;;21082306;28;20047;-58
2022/08/04 22:13:18;;;;;;;5.47;3.33;;;17.20;99.90;;;;;;21061679;28;20037;-65
2022/08/04 22:23:20;;;;;;;4.43;3.70;;;17.10;99.90;;;;;;21015120;28;20028;-61
2022/08/04 22:33:24;;;;;;;4.53;4.07;;;17.20;99.90;;;;;;21047888;28;20048;-66
2022/08/04 22:43:27;;;;;;;7.22;4.00;;;17.00;99.90;;;;;;21011301;28;20064;-68
2022/08/04 22:53:30;;;;;;;3.90;2.97;;;17.10;99.90;;;;;;21041158;28;20041;-65
2022/08/04 23:03:35;;;;;;;4.95;3.28;;;17.00;99.90;;;;;;21006414;28;20489;-65
2022/08/04 23:13:38;;;;;;;4.55;3.85;;;17.00;99.90;;;;;;21027562;28;20040;-63
2022/08/04 23:23:40;;;;;;;4.82;3.70;;;16.90;99.90;;;;;;21109484;28;20027;-65
2022/08/04 23:33:44;;;;;;;5.60;3.63;;;16.70;99.90;;;;;;21102467;28;20039;-64
2022/08/04 23:43:47;;;;;;;4.07;3.30;;;16.80;99.90;;;;;;21047476;28;20047;-70
2022/08/04 23:53:49;;;;;;;3.65;2.95;;;16.80;99.90;;;;;;21063482;28;20028;-64
